sensor_id;sensor_type;location;lat;lon;timestamp;P1;durP1;ratioP1;P2;durP2;ratioP2
77226;SDS011;66234;47.642;19.144;2023-02-21T00:02:29;2.50;;;1.40;;
77226;SDS011;66234;47.642;19.144;2023-02-21T00:05:50;3.47;;;1.13;;
77226;SDS011;66234;47.642;19.144;2023-02-21T00:09:11;2.67;;;1.00;;
77226;SDS011;66234;47.642;19.144;2023-02-21T00:12:32;1.88;;;0.65;;
77226;SDS011;66234;47.642;19.144;2023-02-21T00:15:53;2.40;;;0.93;;
77226;SDS011;66234;47.642;19.144;2023-02-21T00:19:15;2.40;;;1.00;;
77226;SDS011;66234;47.642;19.144;2023-02-21T00:22:36;1.70;;;0.90;;
77226;SDS011;66234;47.642;19.144;2023-02-21T00:25:57;7.30;;;0.77;;
77226;SDS011;66234;47.642;19.144;2023-02-21T00:29:18;2.13;;;0.70;;
77226;SDS011;66234;47.642;19.144;2023-02-21T00:32:40;3.17;;;0.87;;
77226;SDS011;66234;47.642;19.144;2023-02-21T00:36:01;1.80;;;0.70;;
77226;SDS011;66234;47.642;19.144;2023-02-21T00:39:22;2.15;;;1.10;;
77226;SDS011;66234;47.642;19.144;2023-02-21T00:42:42;1.85;;;0.82;;
77226;SDS011;66234;47.642;19.144;2023-02-21T00:46:04;1.52;;;0.60;;
77226;SDS011;66234;47.642;19.144;2023-02-21T00:49:25;3.27;;;0.97;;
77226;SDS011;66234;47.642;19.144;2023-02-21T00:52:45;2.10;;;0.80;;
77226;SDS011;66234;47.642;19.144;2023-02-21T00:56:06;2.25;;;0.70;;
77226;SDS011;66234;47.642;19.144;2023-02-21T00:59:27;2.15;;;0.60;;
77226;SDS011;66234;47.642;19.144;2023-02-21T01:02:49;4.10;;;1.05;;
77226;SDS011;66234;47.642;19.144;2023-02-21T01:06:11;1.73;;;0.40;;
77226;SDS011;66234;47.642;19.144;2023-02-21T01:09:33;1.53;;;0.80;;
77226;SDS011;66234;47.642;19.144;2023-02-21T01:12:54;2.35;;;0.80;;
77226;SDS011;66234;47.642;19.144;2023-02-21T01:16:15;3.60;;;0.93;;
77226;SDS011;66234;47.642;19.144;2023-02-21T01:19:36;1.30;;;0.70;;
77226;SDS011;66234;47.642;19.144;2023-02-21T01:22:57;2.40;;;0.63;;
77226;SDS011;66234;47.642;19.144;2023-02-21T01:26:18;3.53;;;0.87;;
77226;SDS011;66234;47.642;19.144;2023-02-21T01:29:39;1.65;;;0.70;;
77226;SDS011;66234;47.642;19.144;2023-02-21T01:33:01;4.93;;;1.15;;
77226;SDS011;66234;47.642;19.144;2023-02-21T01:36:22;2.67;;;0.90;;
77226;SDS011;66234;47.642;19.144;2023-02-21T01:39:44;3.67;;;0.97;;
77226;SDS011;66234;47.642;19.144;2023-02-21T01:43:12;2.60;;;1.10;;
77226;SDS011;66234;47.642;19.144;2023-02-21T01:46:35;2.55;;;1.30;;
77226;SDS011;66234;47.642;19.144;2023-02-21T01:49:57;4.50;;;1.42;;
77226;SDS011;66234;47.642;19.144;2023-02-21T01:53:23;2.47;;;1.13;;
77226;SDS011;66234;47.642;19.144;2023-02-21T01:56:46;3.13;;;1.30;;
77226;SDS011;66234;47.642;19.144;2023-02-21T02:00:09;3.47;;;1.20;;
77226;SDS011;66234;47.642;19.144;2023-02-21T02:03:33;2.38;;;1.08;;
77226;SDS011;66234;47.642;19.144;2023-02-21T02:06:55;2.78;;;1.20;;
77226;SDS011;66234;47.642;19.144;2023-02-21T02:10:17;4.10;;;1.40;;
77226;SDS011;66234;47.642;19.144;2023-02-21T02:13:44;3.83;;;1.30;;
77226;SDS011;66234;47.642;19.144;2023-02-21T02:27:44;1.98;;;1.17;;
77226;SDS011;66234;47.642;19.144;2023-02-21T02:31:02;2.43;;;1.00;;
77226;SDS011;66234;47.642;19.144;2023-02-21T02:41:05;3.40;;;1.35;;
77226;SDS011;66234;47.642;19.144;2023-02-21T02:44:20;3.70;;;1.10;;
77226;SDS011;66234;47.642;19.144;2023-02-21T02:47:35;2.20;;;1.13;;
77226;SDS011;66234;47.642;19.144;2023-02-21T02:50:41;2.23;;;1.20;;
77226;SDS011;66234;47.642;19.144;2023-02-21T02:53:48;1.95;;;1.25;;
77226;SDS011;66234;47.642;19.144;2023-02-21T02:56:52;3.03;;;1.00;;
77226;SDS011;66234;47.642;19.144;2023-02-21T02:59:54;2.40;;;1.17;;
77226;SDS011;66234;47.642;19.144;2023-02-21T03:03:05;1.87;;;1.20;;
77226;SDS011;66234;47.642;19.144;2023-02-21T03:10:09;2.25;;;0.85;;
77226;SDS011;66234;47.642;19.144;2023-02-21T03:16:24;3.55;;;0.85;;
77226;SDS011;66234;47.642;19.144;2023-02-21T03:19:32;1.70;;;0.90;;
77226;SDS011;66234;47.642;19.144;2023-02-21T03:22:38;1.47;;;0.70;;
77226;SDS011;66234;47.642;19.144;2023-02-21T03:25:43;1.67;;;0.68;;
77226;SDS011;66234;47.642;19.144;2023-02-21T03:28:49;2.90;;;0.93;;
77226;SDS011;66234;47.642;19.144;2023-02-21T03:31:54;1.90;;;1.05;;
77226;SDS011;66234;47.642;19.144;2023-02-21T03:35:12;2.50;;;0.93;;
77226;SDS011;66234;47.642;19.144;2023-02-21T03:38:16;6.33;;;1.17;;
77226;SDS011;66234;47.642;19.144;2023-02-21T03:41:19;4.93;;;1.10;;
77226;SDS011;66234;47.642;19.144;2023-02-21T03:44:22;1.40;;;0.70;;
77226;SDS011;66234;47.642;19.144;2023-02-21T03:47:24;2.78;;;0.70;;
77226;SDS011;66234;47.642;19.144;2023-02-21T03:50:28;1.53;;;0.80;;
77226;SDS011;66234;47.642;19.144;2023-02-21T03:53:31;3.67;;;0.93;;
77226;SDS011;66234;47.642;19.144;2023-02-21T03:56:35;1.05;;;0.65;;
77226;SDS011;66234;47.642;19.144;2023-02-21T04:00:03;2.75;;;0.95;;
77226;SDS011;66234;47.642;19.144;2023-02-21T04:03:17;1.27;;;0.80;;
77226;SDS011;66234;47.642;19.144;2023-02-21T04:06:26;1.50;;;0.70;;
77226;SDS011;66234;47.642;19.144;2023-02-21T04:09:30;2.67;;;1.30;;
77226;SDS011;66234;47.642;19.144;2023-02-21T04:12:33;1.83;;;0.77;;
77226;SDS011;66234;47.642;19.144;2023-02-21T04:15:35;1.90;;;1.00;;
77226;SDS011;66234;47.642;19.144;2023-02-21T04:18:38;2.13;;;1.10;;
77226;SDS011;66234;47.642;19.144;2023-02-21T04:21:43;2.40;;;0.90;;
77226;SDS011;66234;47.642;19.144;2023-02-21T04:24:45;2.37;;;0.90;;
77226;SDS011;66234;47.642;19.144;2023-02-21T04:27:50;1.42;;;0.75;;
77226;SDS011;66234;47.642;19.144;2023-02-21T04:30:54;1.55;;;0.47;;
77226;SDS011;66234;47.642;19.144;2023-02-21T04:33:57;2.03;;;0.88;;
77226;SDS011;66234;47.642;19.144;2023-02-21T04:37:13;3.10;;;0.90;;
77226;SDS011;66234;47.642;19.144;2023-02-21T04:40:19;1.40;;;0.70;;
77226;SDS011;66234;47.642;19.144;2023-02-21T04:43:22;2.25;;;1.00;;
77226;SDS011;66234;47.642;19.144;2023-02-21T04:46:25;2.95;;;0.50;;
77226;SDS011;66234;47.642;19.144;2023-02-21T04:49:28;2.42;;;1.10;;
77226;SDS011;66234;47.642;19.144;2023-02-21T04:52:30;2.03;;;0.80;;
77226;SDS011;66234;47.642;19.144;2023-02-21T04:55:33;3.10;;;0.87;;
77226;SDS011;66234;47.642;19.144;2023-02-21T04:58:37;3.30;;;1.05;;
77226;SDS011;66234;47.642;19.144;2023-02-21T05:01:47;2.67;;;1.10;;
77226;SDS011;66234;47.642;19.144;2023-02-21T05:04:49;2.90;;;1.20;;
77226;SDS011;66234;47.642;19.144;2023-02-21T05:07:52;2.30;;;0.90;;
77226;SDS011;66234;47.642;19.144;2023-02-21T05:10:55;2.43;;;1.00;;
77226;SDS011;66234;47.642;19.144;2023-02-21T05:13:57;2.00;;;1.00;;
77226;SDS011;66234;47.642;19.144;2023-02-21T05:17:00;2.67;;;0.77;;
77226;SDS011;66234;47.642;19.144;2023-02-21T05:20:04;2.42;;;0.50;;
77226;SDS011;66234;47.642;19.144;2023-02-21T05:23:09;1.90;;;1.10;;
77226;SDS011;66234;47.642;19.144;2023-02-21T05:26:15;2.20;;;0.90;;
77226;SDS011;66234;47.642;19.144;2023-02-21T05:29:17;2.13;;;0.90;;
77226;SDS011;66234;47.642;19.144;2023-02-21T05:32:21;4.60;;;0.88;;
77226;SDS011;66234;47.642;19.144;2023-02-21T05:35:23;5.32;;;0.95;;
77226;SDS011;66234;47.642;19.144;2023-02-21T05:38:26;3.67;;;0.80;;
77226;SDS011;66234;47.642;19.144;2023-02-21T05:41:29;3.17;;;1.10;;
77226;SDS011;66234;47.642;19.144;2023-02-21T05:44:31;2.08;;;0.60;;
77226;SDS011;66234;47.642;19.144;2023-02-21T05:47:34;3.35;;;0.82;;
77226;SDS011;66234;47.642;19.144;2023-02-21T05:50:37;2.00;;;1.05;;
77226;SDS011;66234;47.642;19.144;2023-02-21T05:53:40;1.60;;;0.90;;
77226;SDS011;66234;47.642;19.144;2023-02-21T05:56:44;4.93;;;1.03;;
77226;SDS011;66234;47.642;19.144;2023-02-21T05:59:48;3.13;;;0.93;;
77226;SDS011;66234;47.642;19.144;2023-02-21T06:02:51;2.95;;;1.00;;
77226;SDS011;66234;47.642;19.144;2023-02-21T06:05:53;2.42;;;1.10;;
77226;SDS011;66234;47.642;19.144;2023-02-21T06:08:56;1.20;;;0.80;;
77226;SDS011;66234;47.642;19.144;2023-02-21T06:11:58;1.73;;;0.60;;
77226;SDS011;66234;47.642;19.144;2023-02-21T06:15:01;1.05;;;0.47;;
77226;SDS011;66234;47.642;19.144;2023-02-21T06:18:08;2.58;;;0.98;;
77226;SDS011;66234;47.642;19.144;2023-02-21T06:21:15;2.28;;;0.98;;
77226;SDS011;66234;47.642;19.144;2023-02-21T06:24:18;0.93;;;0.50;;
77226;SDS011;66234;47.642;19.144;2023-02-21T06:27:20;8.10;;;0.97;;
77226;SDS011;66234;47.642;19.144;2023-02-21T06:30:23;3.17;;;0.88;;
77226;SDS011;66234;47.642;19.144;2023-02-21T06:33:26;2.08;;;1.02;;
77226;SDS011;66234;47.642;19.144;2023-02-21T06:36:29;2.50;;;1.15;;
77226;SDS011;66234;47.642;19.144;2023-02-21T06:39:31;4.33;;;1.10;;
77226;SDS011;66234;47.642;19.144;2023-02-21T06:42:34;3.03;;;0.87;;
77226;SDS011;66234;47.642;19.144;2023-02-21T06:45:38;2.00;;;0.68;;
77226;SDS011;66234;47.642;19.144;2023-02-21T06:48:41;2.47;;;1.20;;
77226;SDS011;66234;47.642;19.144;2023-02-21T06:51:43;2.15;;;0.68;;
77226;SDS011;66234;47.642;19.144;2023-02-21T06:54:48;2.00;;;0.90;;
77226;SDS011;66234;47.642;19.144;2023-02-21T06:57:52;4.53;;;0.87;;
77226;SDS011;66234;47.642;19.144;2023-02-21T07:00:55;2.45;;;0.60;;
77226;SDS011;66234;47.642;19.144;2023-02-21T07:04:00;3.20;;;0.98;;
77226;SDS011;66234;47.642;19.144;2023-02-21T07:07:03;1.70;;;0.90;;
77226;SDS011;66234;47.642;19.144;2023-02-21T07:10:06;3.57;;;1.73;;
77226;SDS011;66234;47.642;19.144;2023-02-21T07:13:09;2.97;;;1.10;;
77226;SDS011;66234;47.642;19.144;2023-02-21T07:16:11;1.65;;;0.70;;
77226;SDS011;66234;47.642;19.144;2023-02-21T07:19:15;4.20;;;1.23;;
77226;SDS011;66234;47.642;19.144;2023-02-21T07:22:17;1.80;;;0.68;;
77226;SDS011;66234;47.642;19.144;2023-02-21T07:25:27;1.40;;;1.00;;
77226;SDS011;66234;47.642;19.144;2023-02-21T07:28:31;6.13;;;1.03;;
77226;SDS011;66234;47.642;19.144;2023-02-21T07:31:34;3.05;;;1.00;;
77226;SDS011;66234;47.642;19.144;2023-02-21T07:34:37;2.42;;;0.80;;
77226;SDS011;66234;47.642;19.144;2023-02-21T07:37:39;1.42;;;0.88;;
77226;SDS011;66234;47.642;19.144;2023-02-21T07:40:42;3.03;;;1.50;;
77226;SDS011;66234;47.642;19.144;2023-02-21T07:43:46;5.40;;;1.10;;
77226;SDS011;66234;47.642;19.144;2023-02-21T07:46:48;1.73;;;0.50;;
77226;SDS011;66234;47.642;19.144;2023-02-21T07:49:52;1.40;;;0.80;;
77226;SDS011;66234;47.642;19.144;2023-02-21T07:52:55;3.78;;;1.00;;
77226;SDS011;66234;47.642;19.144;2023-02-21T07:56:01;3.40;;;1.10;;
77226;SDS011;66234;47.642;19.144;2023-02-21T07:59:04;4.60;;;0.80;;
77226;SDS011;66234;47.642;19.144;2023-02-21T08:02:08;4.47;;;0.93;;
77226;SDS011;66234;47.642;19.144;2023-02-21T08:05:14;1.85;;;0.80;;
77226;SDS011;66234;47.642;19.144;2023-02-21T08:08:18;4.18;;;1.20;;
77226;SDS011;66234;47.642;19.144;2023-02-21T08:11:20;2.77;;;1.03;;
77226;SDS011;66234;47.642;19.144;2023-02-21T08:14:23;2.53;;;0.67;;
77226;SDS011;66234;47.642;19.144;2023-02-21T08:17:26;1.88;;;0.73;;
77226;SDS011;66234;47.642;19.144;2023-02-21T08:20:29;8.40;;;1.38;;
77226;SDS011;66234;47.642;19.144;2023-02-21T08:23:31;3.30;;;0.70;;
77226;SDS011;66234;47.642;19.144;2023-02-21T08:26:34;1.37;;;0.60;;
77226;SDS011;66234;47.642;19.144;2023-02-21T08:29:36;3.00;;;0.60;;
77226;SDS011;66234;47.642;19.144;2023-02-21T08:32:42;3.25;;;1.00;;
77226;SDS011;66234;47.642;19.144;2023-02-21T08:35:45;2.65;;;0.88;;
77226;SDS011;66234;47.642;19.144;2023-02-21T08:38:48;1.00;;;0.50;;
77226;SDS011;66234;47.642;19.144;2023-02-21T08:41:51;1.33;;;0.77;;
77226;SDS011;66234;47.642;19.144;2023-02-21T08:44:54;1.13;;;0.80;;
77226;SDS011;66234;47.642;19.144;2023-02-21T08:47:57;1.58;;;0.80;;
77226;SDS011;66234;47.642;19.144;2023-02-21T08:51:02;1.40;;;0.70;;
77226;SDS011;66234;47.642;19.144;2023-02-21T08:54:05;2.53;;;0.88;;
77226;SDS011;66234;47.642;19.144;2023-02-21T08:57:08;2.90;;;1.00;;
77226;SDS011;66234;47.642;19.144;2023-02-21T09:00:12;1.87;;;0.53;;
77226;SDS011;66234;47.642;19.144;2023-02-21T09:03:16;3.22;;;1.17;;
77226;SDS011;66234;47.642;19.144;2023-02-21T09:06:20;2.70;;;0.68;;
77226;SDS011;66234;47.642;19.144;2023-02-21T09:09:23;3.38;;;0.93;;
77226;SDS011;66234;47.642;19.144;2023-02-21T09:12:25;1.87;;;0.50;;
77226;SDS011;66234;47.642;19.144;2023-02-21T09:15:28;0.80;;;0.57;;
77226;SDS011;66234;47.642;19.144;2023-02-21T09:18:31;2.78;;;1.05;;
77226;SDS011;66234;47.642;19.144;2023-02-21T09:21:34;4.70;;;0.98;;
77226;SDS011;66234;47.642;19.144;2023-02-21T09:24:38;2.13;;;0.70;;
77226;SDS011;66234;47.642;19.144;2023-02-21T09:27:40;1.43;;;0.77;;
77226;SDS011;66234;47.642;19.144;2023-02-21T09:30:43;3.90;;;0.87;;
77226;SDS011;66234;47.642;19.144;2023-02-21T09:33:46;1.17;;;0.60;;
77226;SDS011;66234;47.642;19.144;2023-02-21T09:36:49;3.13;;;0.50;;
77226;SDS011;66234;47.642;19.144;2023-02-21T09:39:53;3.05;;;0.82;;
77226;SDS011;66234;47.642;19.144;2023-02-21T09:42:56;1.90;;;0.60;;
77226;SDS011;66234;47.642;19.144;2023-02-21T09:46:04;0.60;;;0.40;;
77226;SDS011;66234;47.642;19.144;2023-02-21T09:49:20;1.35;;;0.50;;
77226;SDS011;66234;47.642;19.144;2023-02-21T09:52:36;1.65;;;0.68;;
77226;SDS011;66234;47.642;19.144;2023-02-21T09:55:42;2.65;;;0.70;;
77226;SDS011;66234;47.642;19.144;2023-02-21T09:58:46;2.53;;;1.07;;
77226;SDS011;66234;47.642;19.144;2023-02-21T10:08:24;2.25;;;1.20;;
77226;SDS011;66234;47.642;19.144;2023-02-21T10:18:47;1.83;;;0.80;;
77226;SDS011;66234;47.642;19.144;2023-02-21T10:22:09;2.20;;;1.08;;
77226;SDS011;66234;47.642;19.144;2023-02-21T10:25:25;3.63;;;1.00;;
77226;SDS011;66234;47.642;19.144;2023-02-21T10:28:32;2.20;;;1.30;;
77226;SDS011;66234;47.642;19.144;2023-02-21T10:31:36;1.60;;;1.00;;
77226;SDS011;66234;47.642;19.144;2023-02-21T10:34:44;2.33;;;0.90;;
77226;SDS011;66234;47.642;19.144;2023-02-21T10:37:52;2.83;;;0.90;;
77226;SDS011;66234;47.642;19.144;2023-02-21T10:40:58;1.73;;;1.20;;
77226;SDS011;66234;47.642;19.144;2023-02-21T10:44:08;3.28;;;1.02;;
77226;SDS011;66234;47.642;19.144;2023-02-21T10:47:21;2.97;;;0.70;;
77226;SDS011;66234;47.642;19.144;2023-02-21T10:50:51;2.53;;;1.10;;
77226;SDS011;66234;47.642;19.144;2023-02-21T10:54:18;3.00;;;1.17;;
77226;SDS011;66234;47.642;19.144;2023-02-21T10:57:25;3.88;;;1.20;;
77226;SDS011;66234;47.642;19.144;2023-02-21T11:00:35;3.25;;;1.13;;
77226;SDS011;66234;47.642;19.144;2023-02-21T11:03:50;2.90;;;1.20;;
77226;SDS011;66234;47.642;19.144;2023-02-21T11:06:56;2.83;;;1.30;;
77226;SDS011;66234;47.642;19.144;2023-02-21T11:10:16;3.80;;;1.52;;
77226;SDS011;66234;47.642;19.144;2023-02-21T11:13:31;1.70;;;0.90;;
77226;SDS011;66234;47.642;19.144;2023-02-21T11:16:37;8.95;;;1.50;;
77226;SDS011;66234;47.642;19.144;2023-02-21T11:19:41;2.30;;;1.03;;
77226;SDS011;66234;47.642;19.144;2023-02-21T11:22:45;2.40;;;1.23;;
77226;SDS011;66234;47.642;19.144;2023-02-21T11:25:50;2.25;;;1.10;;
77226;SDS011;66234;47.642;19.144;2023-02-21T11:29:09;2.53;;;1.40;;
77226;SDS011;66234;47.642;19.144;2023-02-21T11:32:20;4.18;;;1.25;;
77226;SDS011;66234;47.642;19.144;2023-02-21T11:35:28;2.40;;;1.60;;
77226;SDS011;66234;47.642;19.144;2023-02-21T11:38:38;3.10;;;1.47;;
77226;SDS011;66234;47.642;19.144;2023-02-21T11:41:46;2.67;;;1.33;;
77226;SDS011;66234;47.642;19.144;2023-02-21T11:45:03;2.50;;;1.50;;
77226;SDS011;66234;47.642;19.144;2023-02-21T11:48:13;4.22;;;1.23;;
77226;SDS011;66234;47.642;19.144;2023-02-21T11:51:39;4.10;;;1.73;;
77226;SDS011;66234;47.642;19.144;2023-02-21T11:54:46;2.97;;;1.43;;
77226;SDS011;66234;47.642;19.144;2023-02-21T12:05:03;1.95;;;1.40;;
77226;SDS011;66234;47.642;19.144;2023-02-21T12:08:37;2.63;;;1.60;;
77226;SDS011;66234;47.642;19.144;2023-02-21T12:18:21;2.85;;;1.50;;
77226;SDS011;66234;47.642;19.144;2023-02-21T12:21:45;4.10;;;1.60;;
77226;SDS011;66234;47.642;19.144;2023-02-21T12:28:17;3.53;;;1.40;;
77226;SDS011;66234;47.642;19.144;2023-02-21T12:52:18;2.28;;;1.33;;
77226;SDS011;66234;47.642;19.144;2023-02-21T12:55:32;2.00;;;1.52;;
77226;SDS011;66234;47.642;19.144;2023-02-21T13:06:09;4.93;;;1.30;;
77226;SDS011;66234;47.642;19.144;2023-02-21T13:09:34;2.30;;;1.20;;
77226;SDS011;66234;47.642;19.144;2023-02-21T13:12:42;2.83;;;1.40;;
77226;SDS011;66234;47.642;19.144;2023-02-21T13:15:52;4.17;;;1.70;;
77226;SDS011;66234;47.642;19.144;2023-02-21T13:18:58;2.73;;;1.07;;
77226;SDS011;66234;47.642;19.144;2023-02-21T13:29:36;1.65;;;1.20;;
77226;SDS011;66234;47.642;19.144;2023-02-21T13:32:48;2.47;;;1.40;;
77226;SDS011;66234;47.642;19.144;2023-02-21T13:35:55;1.67;;;1.17;;
77226;SDS011;66234;47.642;19.144;2023-02-21T13:42:24;1.95;;;1.33;;
77226;SDS011;66234;47.642;19.144;2023-02-21T13:45:28;2.35;;;1.33;;
77226;SDS011;66234;47.642;19.144;2023-02-21T13:48:33;1.37;;;1.23;;
77226;SDS011;66234;47.642;19.144;2023-02-21T13:51:46;2.53;;;1.13;;
77226;SDS011;66234;47.642;19.144;2023-02-21T14:07:59;2.03;;;1.03;;
77226;SDS011;66234;47.642;19.144;2023-02-21T14:14:18;1.55;;;0.80;;
77226;SDS011;66234;47.642;19.144;2023-02-21T14:17:27;1.30;;;0.88;;
77226;SDS011;66234;47.642;19.144;2023-02-21T14:20:33;2.10;;;1.07;;
77226;SDS011;66234;47.642;19.144;2023-02-21T14:23:41;2.90;;;0.60;;
77226;SDS011;66234;47.642;19.144;2023-02-21T14:26:50;1.92;;;0.90;;
77226;SDS011;66234;47.642;19.144;2023-02-21T14:33:20;2.17;;;1.20;;
77226;SDS011;66234;47.642;19.144;2023-02-21T14:36:26;1.40;;;1.00;;
77226;SDS011;66234;47.642;19.144;2023-02-21T14:39:35;1.50;;;0.87;;
77226;SDS011;66234;47.642;19.144;2023-02-21T14:56:08;2.37;;;1.00;;
77226;SDS011;66234;47.642;19.144;2023-02-21T15:08:51;2.07;;;0.97;;
77226;SDS011;66234;47.642;19.144;2023-02-21T15:11:53;1.37;;;1.03;;
77226;SDS011;66234;47.642;19.144;2023-02-21T15:14:57;2.40;;;1.05;;
77226;SDS011;66234;47.642;19.144;2023-02-21T15:18:09;2.13;;;0.55;;
77226;SDS011;66234;47.642;19.144;2023-02-21T15:21:22;2.05;;;1.05;;
77226;SDS011;66234;47.642;19.144;2023-02-21T15:24:24;2.30;;;0.90;;
77226;SDS011;66234;47.642;19.144;2023-02-21T15:27:27;2.17;;;1.17;;
77226;SDS011;66234;47.642;19.144;2023-02-21T15:30:39;1.90;;;0.90;;
77226;SDS011;66234;47.642;19.144;2023-02-21T15:33:43;1.38;;;0.60;;
77226;SDS011;66234;47.642;19.144;2023-02-21T15:36:47;3.63;;;0.90;;
77226;SDS011;66234;47.642;19.144;2023-02-21T15:39:53;1.93;;;1.00;;
77226;SDS011;66234;47.642;19.144;2023-02-21T15:42:59;1.27;;;0.90;;
77226;SDS011;66234;47.642;19.144;2023-02-21T15:46:04;3.83;;;2.15;;
77226;SDS011;66234;47.642;19.144;2023-02-21T15:49:20;1.85;;;0.98;;
77226;SDS011;66234;47.642;19.144;2023-02-21T15:52:45;2.38;;;0.70;;
77226;SDS011;66234;47.642;19.144;2023-02-21T15:55:52;2.83;;;1.00;;
77226;SDS011;66234;47.642;19.144;2023-02-21T15:59:02;2.27;;;0.90;;
77226;SDS011;66234;47.642;19.144;2023-02-21T16:05:26;2.38;;;1.33;;
77226;SDS011;66234;47.642;19.144;2023-02-21T16:08:31;2.80;;;1.38;;
77226;SDS011;66234;47.642;19.144;2023-02-21T16:11:41;1.87;;;1.10;;
77226;SDS011;66234;47.642;19.144;2023-02-21T16:14:45;1.57;;;1.00;;
77226;SDS011;66234;47.642;19.144;2023-02-21T16:17:57;2.53;;;1.20;;
77226;SDS011;66234;47.642;19.144;2023-02-21T16:21:06;2.28;;;1.35;;
77226;SDS011;66234;47.642;19.144;2023-02-21T16:27:32;1.30;;;1.10;;
77226;SDS011;66234;47.642;19.144;2023-02-21T16:30:36;2.87;;;1.53;;
77226;SDS011;66234;47.642;19.144;2023-02-21T16:33:40;3.22;;;1.70;;
77226;SDS011;66234;47.642;19.144;2023-02-21T16:36:43;5.45;;;1.20;;
77226;SDS011;66234;47.642;19.144;2023-02-21T16:39:46;2.90;;;1.20;;
77226;SDS011;66234;47.642;19.144;2023-02-21T16:42:50;3.47;;;1.57;;
77226;SDS011;66234;47.642;19.144;2023-02-21T16:45:54;6.43;;;3.20;;
77226;SDS011;66234;47.642;19.144;2023-02-21T16:48:59;4.07;;;1.83;;
77226;SDS011;66234;47.642;19.144;2023-02-21T16:52:02;3.75;;;1.92;;
77226;SDS011;66234;47.642;19.144;2023-02-21T16:55:05;3.95;;;1.63;;
77226;SDS011;66234;47.642;19.144;2023-02-21T16:58:30;5.40;;;1.80;;
77226;SDS011;66234;47.642;19.144;2023-02-21T17:01:33;3.23;;;1.87;;
77226;SDS011;66234;47.642;19.144;2023-02-21T17:04:36;2.78;;;1.65;;
77226;SDS011;66234;47.642;19.144;2023-02-21T17:07:38;2.75;;;1.30;;
77226;SDS011;66234;47.642;19.144;2023-02-21T17:10:41;3.22;;;1.67;;
77226;SDS011;66234;47.642;19.144;2023-02-21T17:13:44;2.93;;;1.30;;
77226;SDS011;66234;47.642;19.144;2023-02-21T17:16:47;2.20;;;1.17;;
77226;SDS011;66234;47.642;19.144;2023-02-21T17:19:49;2.78;;;1.20;;
77226;SDS011;66234;47.642;19.144;2023-02-21T17:22:52;2.35;;;1.10;;
77226;SDS011;66234;47.642;19.144;2023-02-21T17:25:56;2.13;;;1.00;;
77226;SDS011;66234;47.642;19.144;2023-02-21T17:29:00;2.33;;;1.00;;
77226;SDS011;66234;47.642;19.144;2023-02-21T17:32:02;1.40;;;0.90;;
77226;SDS011;66234;47.642;19.144;2023-02-21T17:35:09;1.77;;;0.98;;
77226;SDS011;66234;47.642;19.144;2023-02-21T17:38:11;4.00;;;1.50;;
77226;SDS011;66234;47.642;19.144;2023-02-21T17:41:15;1.23;;;0.90;;
77226;SDS011;66234;47.642;19.144;2023-02-21T17:44:18;3.60;;;1.20;;
77226;SDS011;66234;47.642;19.144;2023-02-21T17:47:22;5.03;;;1.40;;
77226;SDS011;66234;47.642;19.144;2023-02-21T17:50:25;3.10;;;1.35;;
77226;SDS011;66234;47.642;19.144;2023-02-21T17:53:28;3.92;;;1.45;;
77226;SDS011;66234;47.642;19.144;2023-02-21T17:56:31;2.83;;;1.23;;
77226;SDS011;66234;47.642;19.144;2023-02-21T17:59:34;3.27;;;1.43;;
77226;SDS011;66234;47.642;19.144;2023-02-21T18:02:38;2.23;;;1.13;;
77226;SDS011;66234;47.642;19.144;2023-02-21T18:05:41;2.38;;;1.23;;
77226;SDS011;66234;47.642;19.144;2023-02-21T18:08:44;3.25;;;1.30;;
77226;SDS011;66234;47.642;19.144;2023-02-21T18:11:49;2.05;;;1.48;;
77226;SDS011;66234;47.642;19.144;2023-02-21T18:14:52;3.07;;;1.80;;
77226;SDS011;66234;47.642;19.144;2023-02-21T18:17:55;4.43;;;1.30;;
77226;SDS011;66234;47.642;19.144;2023-02-21T18:21:05;1.73;;;1.23;;
77226;SDS011;66234;47.642;19.144;2023-02-21T18:24:09;5.15;;;1.30;;
77226;SDS011;66234;47.642;19.144;2023-02-21T18:27:12;2.97;;;1.40;;
77226;SDS011;66234;47.642;19.144;2023-02-21T18:30:18;2.93;;;1.27;;
77226;SDS011;66234;47.642;19.144;2023-02-21T18:33:22;5.30;;;2.10;;
77226;SDS011;66234;47.642;19.144;2023-02-21T18:36:28;4.43;;;2.63;;
77226;SDS011;66234;47.642;19.144;2023-02-21T18:39:31;5.50;;;2.60;;
77226;SDS011;66234;47.642;19.144;2023-02-21T18:42:34;3.08;;;1.60;;
77226;SDS011;66234;47.642;19.144;2023-02-21T18:45:37;2.83;;;1.10;;
77226;SDS011;66234;47.642;19.144;2023-02-21T18:48:42;3.80;;;1.80;;
77226;SDS011;66234;47.642;19.144;2023-02-21T18:51:49;3.47;;;1.20;;
77226;SDS011;66234;47.642;19.144;2023-02-21T18:54:52;2.92;;;1.50;;
77226;SDS011;66234;47.642;19.144;2023-02-21T18:57:56;2.83;;;1.52;;
77226;SDS011;66234;47.642;19.144;2023-02-21T19:01:35;2.73;;;1.40;;
77226;SDS011;66234;47.642;19.144;2023-02-21T19:04:38;3.43;;;1.40;;
77226;SDS011;66234;47.642;19.144;2023-02-21T19:07:41;2.90;;;1.60;;
77226;SDS011;66234;47.642;19.144;2023-02-21T19:10:44;3.75;;;1.52;;
77226;SDS011;66234;47.642;19.144;2023-02-21T19:13:47;2.90;;;1.75;;
77226;SDS011;66234;47.642;19.144;2023-02-21T19:16:51;4.47;;;1.80;;
77226;SDS011;66234;47.642;19.144;2023-02-21T19:19:54;3.63;;;1.70;;
77226;SDS011;66234;47.642;19.144;2023-02-21T19:22:57;5.60;;;2.10;;
77226;SDS011;66234;47.642;19.144;2023-02-21T19:26:00;4.68;;;1.95;;
77226;SDS011;66234;47.642;19.144;2023-02-21T19:29:03;4.75;;;1.88;;
77226;SDS011;66234;47.642;19.144;2023-02-21T19:32:06;2.63;;;1.73;;
77226;SDS011;66234;47.642;19.144;2023-02-21T19:35:10;2.77;;;1.57;;
77226;SDS011;66234;47.642;19.144;2023-02-21T19:38:12;6.28;;;1.75;;
77226;SDS011;66234;47.642;19.144;2023-02-21T19:41:16;2.00;;;1.10;;
77226;SDS011;66234;47.642;19.144;2023-02-21T19:44:20;2.88;;;1.48;;
77226;SDS011;66234;47.642;19.144;2023-02-21T19:47:23;2.53;;;1.40;;
77226;SDS011;66234;47.642;19.144;2023-02-21T19:50:28;2.70;;;1.40;;
77226;SDS011;66234;47.642;19.144;2023-02-21T19:53:35;2.97;;;1.27;;
77226;SDS011;66234;47.642;19.144;2023-02-21T19:56:38;2.08;;;1.75;;
77226;SDS011;66234;47.642;19.144;2023-02-21T19:59:41;3.45;;;1.50;;
77226;SDS011;66234;47.642;19.144;2023-02-21T20:02:45;1.97;;;1.30;;
77226;SDS011;66234;47.642;19.144;2023-02-21T20:05:48;3.63;;;1.57;;
77226;SDS011;66234;47.642;19.144;2023-02-21T20:08:51;2.90;;;1.50;;
77226;SDS011;66234;47.642;19.144;2023-02-21T20:11:55;3.45;;;1.23;;
77226;SDS011;66234;47.642;19.144;2023-02-21T20:14:58;2.47;;;1.20;;
77226;SDS011;66234;47.642;19.144;2023-02-21T20:18:01;1.50;;;1.10;;
77226;SDS011;66234;47.642;19.144;2023-02-21T20:21:05;3.67;;;1.27;;
77226;SDS011;66234;47.642;19.144;2023-02-21T20:24:08;3.00;;;1.50;;
77226;SDS011;66234;47.642;19.144;2023-02-21T20:27:20;2.88;;;1.75;;
77226;SDS011;66234;47.642;19.144;2023-02-21T20:30:24;2.38;;;1.42;;
77226;SDS011;66234;47.642;19.144;2023-02-21T20:33:28;2.80;;;1.17;;
77226;SDS011;66234;47.642;19.144;2023-02-21T20:36:33;2.17;;;1.53;;
77226;SDS011;66234;47.642;19.144;2023-02-21T20:39:38;2.55;;;1.27;;
77226;SDS011;66234;47.642;19.144;2023-02-21T20:42:42;2.38;;;1.23;;
77226;SDS011;66234;47.642;19.144;2023-02-21T20:45:44;2.40;;;1.50;;
77226;SDS011;66234;47.642;19.144;2023-02-21T20:48:48;3.33;;;1.77;;
77226;SDS011;66234;47.642;19.144;2023-02-21T20:51:50;2.50;;;1.60;;
77226;SDS011;66234;47.642;19.144;2023-02-21T20:54:53;3.63;;;1.80;;
77226;SDS011;66234;47.642;19.144;2023-02-21T20:57:56;4.25;;;1.40;;